createdAt,value
2023-02-17T00:09:44.476Z,99822.66
2023-02-17T00:19:50.182Z,99821.98
2023-02-17T00:29:55.794Z,99816.30
2023-02-17T00:40:01.576Z,99815.91
2023-02-17T00:50:09.285Z,99805.46
2023-02-17T01:00:17.642Z,99806.34
2023-02-17T01:10:23.503Z,99817.36
2023-02-17T01:20:29.219Z,99808.46
2023-02-17T01:30:35.718Z,99802.81
2023-02-17T01:40:49.450Z,99785.87
2023-02-17T01:51:00.471Z,99777.02
2023-02-17T02:01:08.252Z,99768.14
2023-02-17T02:11:13.911Z,99757.27
2023-02-17T02:21:49.994Z,99740.55
2023-02-17T02:32:02.518Z,99721.05
2023-02-17T02:42:12.169Z,99703.55
2023-02-17T02:52:26.959Z,99690.25
2023-02-17T03:02:39.521Z,99694.23
2023-02-17T03:12:45.434Z,99702.02
2023-02-17T03:22:51.866Z,99697.30
2023-02-17T03:32:57.962Z,99700.02
2023-02-17T03:43:03.716Z,99704.10
2023-02-17T03:53:09.571Z,99690.22
2023-02-17T04:03:15.354Z,99678.98
2023-02-17T04:13:21.053Z,99675.36
2023-02-17T04:23:26.820Z,99664.62
2023-02-17T04:33:32.973Z,99659.09
2023-02-17T04:43:39.009Z,99647.05
2023-02-17T04:53:44.766Z,99638.07
2023-02-17T05:03:50.529Z,99630.02
2023-02-17T05:13:56.104Z,99621.07
2023-02-17T05:24:02.006Z,99614.84
2023-02-17T05:34:07.774Z,99603.02
2023-02-17T05:44:13.822Z,99608.55
2023-02-17T05:54:19.573Z,99606.15
2023-02-17T06:04:25.637Z,99596.95
2023-02-17T06:14:31.836Z,99587.21
2023-02-17T06:24:37.518Z,99591.56
2023-02-17T06:34:43.276Z,99575.64
2023-02-17T06:44:49.401Z,99574.27
2023-02-17T06:54:55.263Z,99571.02
2023-02-17T07:05:00.912Z,99560.64
2023-02-17T07:15:09.443Z,99554.28
2023-02-17T07:25:17.692Z,99551.34
2023-02-17T07:35:23.416Z,99550.06
2023-02-17T07:45:29.196Z,99554.69
2023-02-17T07:55:34.831Z,99548.99
2023-02-17T08:05:42.663Z,99542.73
2023-02-17T08:15:48.372Z,99547.35
2023-02-17T08:25:54.161Z,99539.40
2023-02-17T08:36:00.171Z,99525.84
2023-02-17T08:46:10.278Z,99514.60
2023-02-17T08:56:15.982Z,99519.80
2023-02-17T09:06:22.397Z,99521.96
2023-02-17T09:16:28.242Z,99518.34
2023-02-17T09:26:35.109Z,99510.18
2023-02-17T09:36:43.382Z,99494.20
2023-02-17T09:47:02.206Z,99478.04
2023-02-17T09:57:13.963Z,99473.71
2023-02-17T10:07:24.105Z,99463.45
2023-02-17T10:17:37.777Z,99443.67
2023-02-17T10:27:47.271Z,99421.10
2023-02-17T10:37:59.446Z,99409.90
2023-02-17T10:48:09.218Z,99396.20
2023-02-17T10:58:21.195Z,99378.06
2023-02-17T11:08:38.402Z,99356.38
2023-02-17T11:18:50.896Z,99325.36
2023-02-17T11:28:56.620Z,99306.32
2023-02-17T11:39:14.639Z,99296.36
2023-02-17T11:49:43.971Z,99281.84
2023-02-17T12:00:05.756Z,99255.55
2023-02-17T12:10:21.897Z,99222.55
2023-02-17T12:20:45.655Z,99194.89
2023-02-17T12:31:02.564Z,99177.23
2023-02-17T12:41:11.553Z,99158.83
2023-02-17T12:51:23.373Z,99134.93
2023-02-17T13:01:33.787Z,99120.16
2023-02-17T13:11:39.871Z,99107.20
2023-02-17T13:21:55.979Z,99088.66
2023-02-17T13:32:04.689Z,99078.70
2023-02-17T13:42:39.132Z,99056.20
2023-02-17T13:52:46.245Z,99043.70
2023-02-17T14:02:55.360Z,99035.59
2023-02-17T14:13:01.685Z,99012.57
2023-02-17T14:23:11.709Z,98989.33
2023-02-17T14:33:24.786Z,98968.77
2023-02-17T14:43:31.091Z,98947.23
2023-02-17T14:53:38.975Z,98919.84
2023-02-17T15:03:45.539Z,98901.90
2023-02-17T15:13:51.952Z,98879.63
2023-02-17T15:23:59.742Z,98861.27
2023-02-17T15:34:07.863Z,98840.54
2023-02-17T15:44:17.928Z,98814.50
2023-02-17T15:54:23.569Z,98783.11
2023-02-17T16:04:32.234Z,98760.71
2023-02-17T16:14:40.649Z,98745.30
2023-02-17T16:24:46.373Z,98734.77
2023-02-17T16:34:52.761Z,98739.83
2023-02-17T16:44:58.409Z,98734.77
2023-02-17T16:55:04.133Z,98721.89
2023-02-17T17:05:11.412Z,98701.17
2023-02-17T17:15:18.386Z,98685.45
2023-02-17T17:25:24.274Z,98678.64
2023-02-17T17:35:30.690Z,98667.45
2023-02-17T17:45:36.700Z,98650.42
2023-02-17T17:55:42.442Z,98641.53
2023-02-17T18:05:48.692Z,98624.41
2023-02-17T18:15:54.789Z,98626.07
2023-02-17T18:26:00.493Z,98612.98
2023-02-17T18:36:11.834Z,98606.44
2023-02-17T18:46:17.610Z,98615.94
2023-02-17T18:56:25.604Z,98614.63
2023-02-17T19:06:34.755Z,98603.71
2023-02-17T19:16:41.046Z,98601.13
2023-02-17T19:26:46.973Z,98598.66
2023-02-17T19:36:52.808Z,98593.13
2023-02-17T19:46:58.880Z,98594.35
2023-02-17T19:57:08.819Z,98597.98
2023-02-17T20:07:14.713Z,98598.64
2023-02-17T20:17:20.855Z,98591.44
2023-02-17T20:27:26.680Z,98568.66
2023-02-17T20:37:32.377Z,98572.30
2023-02-17T20:47:38.129Z,98562.67
2023-02-17T20:57:44.227Z,98558.95
2023-02-17T21:07:50.433Z,98533.88
2023-02-17T21:17:56.140Z,98528.73
2023-02-17T21:28:02.072Z,98515.90
2023-02-17T21:38:07.957Z,98516.66
2023-02-17T21:48:13.851Z,98524.00
2023-02-17T21:58:19.763Z,98574.31
2023-02-17T22:08:25.794Z,98587.32
2023-02-17T22:18:31.538Z,98592.80
2023-02-17T22:28:38.283Z,98608.69
2023-02-17T22:38:44.475Z,98614.20
2023-02-17T22:48:52.282Z,98617.11
2023-02-17T22:59:00.959Z,98611.79
2023-02-17T23:09:07.733Z,98618.30
2023-02-17T23:19:17.075Z,98623.14
2023-02-17T23:29:23.452Z,98610.16
2023-02-17T23:39:29.278Z,98616.03
2023-02-17T23:49:35.031Z,98650.05
2023-02-17T23:59:40.678Z,98670.21
